sensor_id;sensor_type;location;lat;lon;timestamp;temperature;humidity
33825;DHT22;20127;48.962;8.342;2023-08-12T00:01:23;19.70;99.90
33825;DHT22;20127;48.962;8.342;2023-08-12T00:04:25;19.60;99.90
33825;DHT22;20127;48.962;8.342;2023-08-12T00:07:27;19.70;99.90
33825;DHT22;20127;48.962;8.342;2023-08-12T00:10:29;19.70;99.90
33825;DHT22;20127;48.962;8.342;2023-08-12T00:13:32;19.70;99.90
33825;DHT22;20127;48.962;8.342;2023-08-12T00:16:34;19.70;99.90
33825;DHT22;20127;48.962;8.342;2023-08-12T00:19:36;19.80;99.90
33825;DHT22;20127;48.962;8.342;2023-08-12T00:22:37;19.90;99.90
33825;DHT22;20127;48.962;8.342;2023-08-12T00:25:39;19.90;99.90
33825;DHT22;20127;48.962;8.342;2023-08-12T00:28:42;19.90;99.90
33825;DHT22;20127;48.962;8.342;2023-08-12T00:31:44;20.00;99.90
33825;DHT22;20127;48.962;8.342;2023-08-12T00:34:46;20.00;99.90
33825;DHT22;20127;48.962;8.342;2023-08-12T00:37:47;20.00;99.90
33825;DHT22;20127;48.962;8.342;2023-08-12T00:40:49;20.10;99.90
33825;DHT22;20127;48.962;8.342;2023-08-12T00:43:52;20.10;99.90
33825;DHT22;20127;48.962;8.342;2023-08-12T00:46:55;20.10;99.90
33825;DHT22;20127;48.962;8.342;2023-08-12T00:49:57;20.10;99.90
33825;DHT22;20127;48.962;8.342;2023-08-12T00:52:59;20.10;99.90
33825;DHT22;20127;48.962;8.342;2023-08-12T00:56:01;20.10;99.90
33825;DHT22;20127;48.962;8.342;2023-08-12T00:59:07;20.10;99.90
33825;DHT22;20127;48.962;8.342;2023-08-12T01:02:09;20.00;99.90
33825;DHT22;20127;48.962;8.342;2023-08-12T01:05:12;20.10;99.90
33825;DHT22;20127;48.962;8.342;2023-08-12T01:08:14;20.10;99.90
33825;DHT22;20127;48.962;8.342;2023-08-12T01:11:21;20.10;99.90
33825;DHT22;20127;48.962;8.342;2023-08-12T01:14:33;20.10;99.90
33825;DHT22;20127;48.962;8.342;2023-08-12T01:17:38;20.10;99.90
33825;DHT22;20127;48.962;8.342;2023-08-12T01:20:43;20.00;99.90
33825;DHT22;20127;48.962;8.342;2023-08-12T01:23:46;20.10;99.90
33825;DHT22;20127;48.962;8.342;2023-08-12T01:26:48;20.10;99.90
33825;DHT22;20127;48.962;8.342;2023-08-12T01:29:51;20.10;99.90
33825;DHT22;20127;48.962;8.342;2023-08-12T01:32:58;20.10;99.90
33825;DHT22;20127;48.962;8.342;2023-08-12T01:36:09;20.10;99.90
33825;DHT22;20127;48.962;8.342;2023-08-12T01:39:13;20.10;99.90
33825;DHT22;20127;48.962;8.342;2023-08-12T01:42:17;20.10;99.90
33825;DHT22;20127;48.962;8.342;2023-08-12T01:45:20;20.10;99.90
33825;DHT22;20127;48.962;8.342;2023-08-12T01:48:21;20.10;99.90
33825;DHT22;20127;48.962;8.342;2023-08-12T01:51:24;20.20;99.90
33825;DHT22;20127;48.962;8.342;2023-08-12T01:54:27;20.30;99.90
33825;DHT22;20127;48.962;8.342;2023-08-12T01:57:33;20.30;99.90
33825;DHT22;20127;48.962;8.342;2023-08-12T02:00:35;20.30;99.90
33825;DHT22;20127;48.962;8.342;2023-08-12T02:03:37;20.30;99.90
33825;DHT22;20127;48.962;8.342;2023-08-12T02:06:39;20.30;99.90
33825;DHT22;20127;48.962;8.342;2023-08-12T02:09:42;20.30;99.90
33825;DHT22;20127;48.962;8.342;2023-08-12T02:12:43;20.30;99.90
33825;DHT22;20127;48.962;8.342;2023-08-12T02:15:45;20.20;99.90
33825;DHT22;20127;48.962;8.342;2023-08-12T02:18:47;20.30;99.90
33825;DHT22;20127;48.962;8.342;2023-08-12T02:21:48;20.40;99.90
33825;DHT22;20127;48.962;8.342;2023-08-12T02:24:52;20.40;99.90
33825;DHT22;20127;48.962;8.342;2023-08-12T02:27:53;20.50;99.90
33825;DHT22;20127;48.962;8.342;2023-08-12T02:30:55;20.60;99.90
33825;DHT22;20127;48.962;8.342;2023-08-12T02:33:57;20.60;99.90
33825;DHT22;20127;48.962;8.342;2023-08-12T02:36:58;20.70;99.90
33825;DHT22;20127;48.962;8.342;2023-08-12T02:40:01;20.70;99.90
33825;DHT22;20127;48.962;8.342;2023-08-12T02:43:05;20.80;99.90
33825;DHT22;20127;48.962;8.342;2023-08-12T02:46:06;20.90;99.90
33825;DHT22;20127;48.962;8.342;2023-08-12T02:49:08;20.90;99.90
33825;DHT22;20127;48.962;8.342;2023-08-12T02:52:10;21.00;99.90
33825;DHT22;20127;48.962;8.342;2023-08-12T02:55:13;21.00;99.90
33825;DHT22;20127;48.962;8.342;2023-08-12T02:58:14;21.10;99.90
33825;DHT22;20127;48.962;8.342;2023-08-12T03:01:16;21.10;99.90
33825;DHT22;20127;48.962;8.342;2023-08-12T03:04:18;21.20;99.90
33825;DHT22;20127;48.962;8.342;2023-08-12T03:07:20;21.30;99.90
33825;DHT22;20127;48.962;8.342;2023-08-12T03:10:23;21.30;99.90
33825;DHT22;20127;48.962;8.342;2023-08-12T03:13:25;21.30;99.90
33825;DHT22;20127;48.962;8.342;2023-08-12T03:16:26;21.40;99.90
33825;DHT22;20127;48.962;8.342;2023-08-12T03:19:28;21.40;99.90
33825;DHT22;20127;48.962;8.342;2023-08-12T03:22:30;21.40;99.90
33825;DHT22;20127;48.962;8.342;2023-08-12T03:25:33;21.30;99.90
33825;DHT22;20127;48.962;8.342;2023-08-12T03:28:35;21.30;99.90
33825;DHT22;20127;48.962;8.342;2023-08-12T03:31:36;21.30;99.90
33825;DHT22;20127;48.962;8.342;2023-08-12T03:34:38;21.30;99.90
33825;DHT22;20127;48.962;8.342;2023-08-12T03:37:40;21.30;99.90
33825;DHT22;20127;48.962;8.342;2023-08-12T03:40:43;21.30;99.90
33825;DHT22;20127;48.962;8.342;2023-08-12T03:43:45;21.30;99.90
33825;DHT22;20127;48.962;8.342;2023-08-12T03:46:46;21.30;99.90
33825;DHT22;20127;48.962;8.342;2023-08-12T03:49:48;21.30;99.90
33825;DHT22;20127;48.962;8.342;2023-08-12T03:52:50;21.30;99.90
33825;DHT22;20127;48.962;8.342;2023-08-12T03:55:53;21.30;99.90
33825;DHT22;20127;48.962;8.342;2023-08-12T03:58:54;21.30;99.90
33825;DHT22;20127;48.962;8.342;2023-08-12T04:01:56;21.30;99.90
33825;DHT22;20127;48.962;8.342;2023-08-12T04:04:58;21.30;99.90
33825;DHT22;20127;48.962;8.342;2023-08-12T04:07:59;21.40;99.90
33825;DHT22;20127;48.962;8.342;2023-08-12T04:11:02;21.40;99.90
33825;DHT22;20127;48.962;8.342;2023-08-12T04:14:04;21.40;99.90
33825;DHT22;20127;48.962;8.342;2023-08-12T04:17:06;21.40;99.90
33825;DHT22;20127;48.962;8.342;2023-08-12T04:20:08;21.40;99.90
33825;DHT22;20127;48.962;8.342;2023-08-12T04:23:10;21.40;99.90
33825;DHT22;20127;48.962;8.342;2023-08-12T04:26:13;21.40;99.90
33825;DHT22;20127;48.962;8.342;2023-08-12T04:29:14;21.40;99.90
33825;DHT22;20127;48.962;8.342;2023-08-12T04:32:16;21.40;99.90
33825;DHT22;20127;48.962;8.342;2023-08-12T04:35:18;21.40;99.90
33825;DHT22;20127;48.962;8.342;2023-08-12T04:38:19;21.40;99.90
33825;DHT22;20127;48.962;8.342;2023-08-12T04:41:22;21.40;99.90
33825;DHT22;20127;48.962;8.342;2023-08-12T04:44:25;21.40;99.90
33825;DHT22;20127;48.962;8.342;2023-08-12T04:47:26;21.40;99.90
33825;DHT22;20127;48.962;8.342;2023-08-12T04:50:29;21.40;99.90
33825;DHT22;20127;48.962;8.342;2023-08-12T04:53:31;21.50;99.90
33825;DHT22;20127;48.962;8.342;2023-08-12T04:56:34;21.50;99.90
33825;DHT22;20127;48.962;8.342;2023-08-12T04:59:36;21.50;99.90
33825;DHT22;20127;48.962;8.342;2023-08-12T05:02:37;21.50;99.90
33825;DHT22;20127;48.962;8.342;2023-08-12T05:05:39;21.60;99.90
33825;DHT22;20127;48.962;8.342;2023-08-12T05:08:41;21.60;99.90
33825;DHT22;20127;48.962;8.342;2023-08-12T05:11:44;21.60;99.90
33825;DHT22;20127;48.962;8.342;2023-08-12T05:14:46;21.60;99.90
33825;DHT22;20127;48.962;8.342;2023-08-12T05:17:47;21.70;99.90
33825;DHT22;20127;48.962;8.342;2023-08-12T05:20:51;21.70;99.90
33825;DHT22;20127;48.962;8.342;2023-08-12T05:23:53;21.80;99.90
33825;DHT22;20127;48.962;8.342;2023-08-12T05:26:56;21.80;99.90
33825;DHT22;20127;48.962;8.342;2023-08-12T05:29:58;21.90;99.90
33825;DHT22;20127;48.962;8.342;2023-08-12T05:32:59;22.00;99.90
33825;DHT22;20127;48.962;8.342;2023-08-12T05:36:01;22.00;99.90
33825;DHT22;20127;48.962;8.342;2023-08-12T05:39:04;22.00;99.90
33825;DHT22;20127;48.962;8.342;2023-08-12T05:42:07;22.10;99.90
33825;DHT22;20127;48.962;8.342;2023-08-12T05:45:09;22.00;99.90
33825;DHT22;20127;48.962;8.342;2023-08-12T05:48:11;22.10;99.90
33825;DHT22;20127;48.962;8.342;2023-08-12T05:51:13;22.10;99.90
33825;DHT22;20127;48.962;8.342;2023-08-12T05:54:15;22.10;99.90
33825;DHT22;20127;48.962;8.342;2023-08-12T05:57:18;22.10;99.90
33825;DHT22;20127;48.962;8.342;2023-08-12T06:00:20;22.20;99.90
33825;DHT22;20127;48.962;8.342;2023-08-12T06:03:21;22.40;99.90
33825;DHT22;20127;48.962;8.342;2023-08-12T06:06:23;22.60;99.90
33825;DHT22;20127;48.962;8.342;2023-08-12T06:09:25;22.90;99.90
33825;DHT22;20127;48.962;8.342;2023-08-12T06:12:28;23.10;99.90
33825;DHT22;20127;48.962;8.342;2023-08-12T06:15:30;23.30;99.90
33825;DHT22;20127;48.962;8.342;2023-08-12T06:18:33;23.70;99.90
33825;DHT22;20127;48.962;8.342;2023-08-12T06:21:34;24.20;99.90
33825;DHT22;20127;48.962;8.342;2023-08-12T06:24:36;24.90;99.90
33825;DHT22;20127;48.962;8.342;2023-08-12T06:27:39;25.10;99.90
33825;DHT22;20127;48.962;8.342;2023-08-12T06:30:44;25.40;99.90
33825;DHT22;20127;48.962;8.342;2023-08-12T06:33:46;25.70;99.90
33825;DHT22;20127;48.962;8.342;2023-08-12T06:36:48;26.30;99.90
33825;DHT22;20127;48.962;8.342;2023-08-12T06:39:49;26.40;99.90
33825;DHT22;20127;48.962;8.342;2023-08-12T06:42:52;26.30;99.90
33825;DHT22;20127;48.962;8.342;2023-08-12T06:45:54;26.00;99.90
33825;DHT22;20127;48.962;8.342;2023-08-12T06:48:56;25.80;99.90
33825;DHT22;20127;48.962;8.342;2023-08-12T06:51:58;25.70;99.90
33825;DHT22;20127;48.962;8.342;2023-08-12T06:54:59;25.60;99.90
33825;DHT22;20127;48.962;8.342;2023-08-12T06:58:03;25.40;99.90
33825;DHT22;20127;48.962;8.342;2023-08-12T07:01:04;25.40;99.90
33825;DHT22;20127;48.962;8.342;2023-08-12T07:04:06;25.70;99.90
33825;DHT22;20127;48.962;8.342;2023-08-12T07:07:08;26.50;99.90
33825;DHT22;20127;48.962;8.342;2023-08-12T07:10:10;27.30;99.90
33825;DHT22;20127;48.962;8.342;2023-08-12T07:13:13;27.50;99.90
33825;DHT22;20127;48.962;8.342;2023-08-12T07:16:15;27.40;99.70
33825;DHT22;20127;48.962;8.342;2023-08-12T07:19:16;27.10;99.80
33825;DHT22;20127;48.962;8.342;2023-08-12T07:22:18;27.10;99.90
33825;DHT22;20127;48.962;8.342;2023-08-12T07:25:20;27.90;99.80
33825;DHT22;20127;48.962;8.342;2023-08-12T07:28:24;28.30;98.50
33825;DHT22;20127;48.962;8.342;2023-08-12T07:31:25;28.30;97.70
33825;DHT22;20127;48.962;8.342;2023-08-12T07:34:27;28.00;97.70
33825;DHT22;20127;48.962;8.342;2023-08-12T07:37:29;27.80;97.70
33825;DHT22;20127;48.962;8.342;2023-08-12T07:40:30;28.10;98.30
33825;DHT22;20127;48.962;8.342;2023-08-12T07:43:33;29.00;97.40
33825;DHT22;20127;48.962;8.342;2023-08-12T07:46:35;29.90;95.90
33825;DHT22;20127;48.962;8.342;2023-08-12T07:49:37;30.70;94.70
33825;DHT22;20127;48.962;8.342;2023-08-12T07:52:39;31.30;93.00
33825;DHT22;20127;48.962;8.342;2023-08-12T07:55:41;31.80;91.80
33825;DHT22;20127;48.962;8.342;2023-08-12T07:58:44;32.30;90.10
33825;DHT22;20127;48.962;8.342;2023-08-12T08:01:46;32.10;88.30
33825;DHT22;20127;48.962;8.342;2023-08-12T08:04:48;32.10;87.90
33825;DHT22;20127;48.962;8.342;2023-08-12T08:07:49;32.60;86.20
33825;DHT22;20127;48.962;8.342;2023-08-12T08:10:51;32.80;84.50
33825;DHT22;20127;48.962;8.342;2023-08-12T08:13:54;33.10;82.60
33825;DHT22;20127;48.962;8.342;2023-08-12T08:16:56;33.50;81.00
33825;DHT22;20127;48.962;8.342;2023-08-12T08:19:57;33.90;79.50
33825;DHT22;20127;48.962;8.342;2023-08-12T08:22:59;34.30;78.10
33825;DHT22;20127;48.962;8.342;2023-08-12T08:26:01;34.80;76.30
33825;DHT22;20127;48.962;8.342;2023-08-12T08:29:04;35.10;74.40
33825;DHT22;20127;48.962;8.342;2023-08-12T08:32:06;35.30;73.00
33825;DHT22;20127;48.962;8.342;2023-08-12T08:35:08;35.40;71.40
33825;DHT22;20127;48.962;8.342;2023-08-12T08:38:10;35.60;70.90
33825;DHT22;20127;48.962;8.342;2023-08-12T08:41:11;35.70;69.70
33825;DHT22;20127;48.962;8.342;2023-08-12T08:44:15;35.60;68.70
33825;DHT22;20127;48.962;8.342;2023-08-12T08:47:19;35.70;68.10
33825;DHT22;20127;48.962;8.342;2023-08-12T08:50:24;36.00;67.10
33825;DHT22;20127;48.962;8.342;2023-08-12T08:53:25;36.30;66.30
33825;DHT22;20127;48.962;8.342;2023-08-12T08:56:27;36.20;65.50
33825;DHT22;20127;48.962;8.342;2023-08-12T08:59:31;36.30;64.60
33825;DHT22;20127;48.962;8.342;2023-08-12T09:02:33;36.50;63.70
33825;DHT22;20127;48.962;8.342;2023-08-12T09:05:35;36.60;62.80
33825;DHT22;20127;48.962;8.342;2023-08-12T09:08:41;36.70;62.70
33825;DHT22;20127;48.962;8.342;2023-08-12T09:11:46;36.80;62.00
33825;DHT22;20127;48.962;8.342;2023-08-12T09:14:50;36.80;60.80
33825;DHT22;20127;48.962;8.342;2023-08-12T09:17:51;36.50;60.70
33825;DHT22;20127;48.962;8.342;2023-08-12T09:20:53;36.20;60.80
33825;DHT22;20127;48.962;8.342;2023-08-12T09:23:55;35.60;61.20
33825;DHT22;20127;48.962;8.342;2023-08-12T09:26:57;35.00;62.00
33825;DHT22;20127;48.962;8.342;2023-08-12T09:30:03;34.20;63.30
33825;DHT22;20127;48.962;8.342;2023-08-12T09:33:06;33.60;65.00
33825;DHT22;20127;48.962;8.342;2023-08-12T09:36:08;33.30;66.30
33825;DHT22;20127;48.962;8.342;2023-08-12T09:39:12;33.00;67.30
33825;DHT22;20127;48.962;8.342;2023-08-12T09:42:14;32.70;68.40
33825;DHT22;20127;48.962;8.342;2023-08-12T09:45:18;32.40;69.30
33825;DHT22;20127;48.962;8.342;2023-08-12T09:48:21;32.40;70.00
33825;DHT22;20127;48.962;8.342;2023-08-12T09:51:22;32.80;69.90
33825;DHT22;20127;48.962;8.342;2023-08-12T09:54:26;33.50;69.30
33825;DHT22;20127;48.962;8.342;2023-08-12T09:57:29;34.30;67.80
33825;DHT22;20127;48.962;8.342;2023-08-12T10:00:32;34.10;67.50
33825;DHT22;20127;48.962;8.342;2023-08-12T10:03:34;34.50;67.00
33825;DHT22;20127;48.962;8.342;2023-08-12T10:06:36;35.10;66.00
33825;DHT22;20127;48.962;8.342;2023-08-12T10:09:40;35.50;64.80
33825;DHT22;20127;48.962;8.342;2023-08-12T10:12:42;35.80;63.80
33825;DHT22;20127;48.962;8.342;2023-08-12T10:15:45;35.90;63.30
33825;DHT22;20127;48.962;8.342;2023-08-12T10:18:48;35.90;63.20
33825;DHT22;20127;48.962;8.342;2023-08-12T10:21:54;35.90;62.70
33825;DHT22;20127;48.962;8.342;2023-08-12T10:24:57;35.80;62.00
33825;DHT22;20127;48.962;8.342;2023-08-12T10:27:59;35.30;62.10
33825;DHT22;20127;48.962;8.342;2023-08-12T10:31:03;35.10;62.50
33825;DHT22;20127;48.962;8.342;2023-08-12T10:34:05;34.80;62.00
33825;DHT22;20127;48.962;8.342;2023-08-12T10:37:10;34.10;63.80
33825;DHT22;20127;48.962;8.342;2023-08-12T10:40:20;34.10;64.10
33825;DHT22;20127;48.962;8.342;2023-08-12T10:43:26;33.90;64.10
33825;DHT22;20127;48.962;8.342;2023-08-12T10:46:33;33.30;64.70
33825;DHT22;20127;48.962;8.342;2023-08-12T10:49:38;32.70;66.10
33825;DHT22;20127;48.962;8.342;2023-08-12T10:52:41;32.30;67.00
33825;DHT22;20127;48.962;8.342;2023-08-12T10:55:48;31.60;68.10
33825;DHT22;20127;48.962;8.342;2023-08-12T10:58:50;30.90;70.50
33825;DHT22;20127;48.962;8.342;2023-08-12T11:02:06;30.40;71.90
33825;DHT22;20127;48.962;8.342;2023-08-12T11:05:09;29.80;73.80
33825;DHT22;20127;48.962;8.342;2023-08-12T11:08:13;29.00;76.50
33825;DHT22;20127;48.962;8.342;2023-08-12T11:11:20;28.20;80.20
33825;DHT22;20127;48.962;8.342;2023-08-12T11:14:23;27.80;83.80
33825;DHT22;20127;48.962;8.342;2023-08-12T11:17:30;27.30;86.60
33825;DHT22;20127;48.962;8.342;2023-08-12T11:20:33;27.00;89.80
33825;DHT22;20127;48.962;8.342;2023-08-12T11:23:36;26.90;91.30
33825;DHT22;20127;48.962;8.342;2023-08-12T11:26:38;27.00;92.60
33825;DHT22;20127;48.962;8.342;2023-08-12T11:29:40;27.50;94.60
33825;DHT22;20127;48.962;8.342;2023-08-12T11:32:44;28.30;95.60
33825;DHT22;20127;48.962;8.342;2023-08-12T11:35:46;28.80;95.00
33825;DHT22;20127;48.962;8.342;2023-08-12T11:38:48;29.10;94.30
33825;DHT22;20127;48.962;8.342;2023-08-12T11:41:50;29.40;94.10
33825;DHT22;20127;48.962;8.342;2023-08-12T11:44:52;29.70;94.20
33825;DHT22;20127;48.962;8.342;2023-08-12T11:47:55;30.00;94.30
33825;DHT22;20127;48.962;8.342;2023-08-12T11:50:58;30.60;93.80
33825;DHT22;20127;48.962;8.342;2023-08-12T11:54:00;31.20;93.30
33825;DHT22;20127;48.962;8.342;2023-08-12T11:57:02;31.80;92.50
33825;DHT22;20127;48.962;8.342;2023-08-12T12:00:05;32.30;91.00
33825;DHT22;20127;48.962;8.342;2023-08-12T12:03:16;32.60;89.90
33825;DHT22;20127;48.962;8.342;2023-08-12T12:06:28;33.00;87.70
33825;DHT22;20127;48.962;8.342;2023-08-12T12:09:30;33.20;85.50
33825;DHT22;20127;48.962;8.342;2023-08-12T12:12:33;33.60;84.40
33825;DHT22;20127;48.962;8.342;2023-08-12T12:15:38;33.90;82.90
33825;DHT22;20127;48.962;8.342;2023-08-12T12:18:41;34.10;82.10
33825;DHT22;20127;48.962;8.342;2023-08-12T12:21:45;34.50;80.50
33825;DHT22;20127;48.962;8.342;2023-08-12T12:24:47;34.80;78.90
33825;DHT22;20127;48.962;8.342;2023-08-12T12:27:49;34.90;76.90
33825;DHT22;20127;48.962;8.342;2023-08-12T12:30:51;34.80;76.90
33825;DHT22;20127;48.962;8.342;2023-08-12T12:33:54;34.30;76.60
33825;DHT22;20127;48.962;8.342;2023-08-12T12:36:55;34.00;76.90
33825;DHT22;20127;48.962;8.342;2023-08-12T12:39:57;33.80;77.60
33825;DHT22;20127;48.962;8.342;2023-08-12T12:42:59;33.90;77.80
33825;DHT22;20127;48.962;8.342;2023-08-12T12:46:00;34.30;76.50
33825;DHT22;20127;48.962;8.342;2023-08-12T12:49:03;34.50;73.80
33825;DHT22;20127;48.962;8.342;2023-08-12T12:52:05;34.40;72.30
33825;DHT22;20127;48.962;8.342;2023-08-12T12:55:08;34.50;72.20
33825;DHT22;20127;48.962;8.342;2023-08-12T12:58:10;34.60;70.10
33825;DHT22;20127;48.962;8.342;2023-08-12T13:01:12;34.70;69.90
33825;DHT22;20127;48.962;8.342;2023-08-12T13:04:15;34.60;69.40
33825;DHT22;20127;48.962;8.342;2023-08-12T13:07:16;34.30;69.30
33825;DHT22;20127;48.962;8.342;2023-08-12T13:10:18;34.30;69.30
33825;DHT22;20127;48.962;8.342;2023-08-12T13:13:20;34.30;69.00
33825;DHT22;20127;48.962;8.342;2023-08-12T13:16:21;33.80;68.30
33825;DHT22;20127;48.962;8.342;2023-08-12T13:19:25;32.80;69.40
33825;DHT22;20127;48.962;8.342;2023-08-12T13:22:26;32.10;71.20
33825;DHT22;20127;48.962;8.342;2023-08-12T13:25:29;32.30;72.00
33825;DHT22;20127;48.962;8.342;2023-08-12T13:28:31;32.70;72.10
33825;DHT22;20127;48.962;8.342;2023-08-12T13:31:33;33.00;71.60
33825;DHT22;20127;48.962;8.342;2023-08-12T13:34:36;33.40;71.30
33825;DHT22;20127;48.962;8.342;2023-08-12T13:37:37;33.70;70.70
33825;DHT22;20127;48.962;8.342;2023-08-12T13:40:39;34.00;70.40
33825;DHT22;20127;48.962;8.342;2023-08-12T13:43:41;34.20;69.80
33825;DHT22;20127;48.962;8.342;2023-08-12T13:46:42;34.30;69.10
33825;DHT22;20127;48.962;8.342;2023-08-12T13:49:45;34.30;69.10
33825;DHT22;20127;48.962;8.342;2023-08-12T13:52:47;34.50;69.30
33825;DHT22;20127;48.962;8.342;2023-08-12T13:55:49;34.80;68.90
33825;DHT22;20127;48.962;8.342;2023-08-12T13:58:51;34.80;68.60
33825;DHT22;20127;48.962;8.342;2023-08-12T14:01:53;34.80;68.30
33825;DHT22;20127;48.962;8.342;2023-08-12T14:04:56;34.70;68.40
33825;DHT22;20127;48.962;8.342;2023-08-12T14:07:57;34.60;68.30
33825;DHT22;20127;48.962;8.342;2023-08-12T14:11:00;34.30;68.70
33825;DHT22;20127;48.962;8.342;2023-08-12T14:14:01;33.70;69.20
33825;DHT22;20127;48.962;8.342;2023-08-12T14:17:04;33.20;70.30
33825;DHT22;20127;48.962;8.342;2023-08-12T14:20:08;32.60;71.60
33825;DHT22;20127;48.962;8.342;2023-08-12T14:23:10;32.00;73.20
33825;DHT22;20127;48.962;8.342;2023-08-12T14:26:11;31.70;74.50
33825;DHT22;20127;48.962;8.342;2023-08-12T14:29:13;31.30;75.50
33825;DHT22;20127;48.962;8.342;2023-08-12T14:32:14;30.90;77.10
33825;DHT22;20127;48.962;8.342;2023-08-12T14:35:20;30.60;79.50
33825;DHT22;20127;48.962;8.342;2023-08-12T14:38:22;30.20;81.60
33825;DHT22;20127;48.962;8.342;2023-08-12T14:41:23;29.70;82.80
33825;DHT22;20127;48.962;8.342;2023-08-12T14:44:25;29.40;84.00
33825;DHT22;20127;48.962;8.342;2023-08-12T14:47:27;28.90;86.30
33825;DHT22;20127;48.962;8.342;2023-08-12T14:50:30;28.10;89.40
33825;DHT22;20127;48.962;8.342;2023-08-12T14:53:31;27.10;91.30
33825;DHT22;20127;48.962;8.342;2023-08-12T14:56:33;26.10;92.80
33825;DHT22;20127;48.962;8.342;2023-08-12T14:59:35;25.20;94.70
33825;DHT22;20127;48.962;8.342;2023-08-12T15:02:36;24.40;98.30
33825;DHT22;20127;48.962;8.342;2023-08-12T15:05:39;23.80;99.90
33825;DHT22;20127;48.962;8.342;2023-08-12T15:08:41;23.40;99.90
33825;DHT22;20127;48.962;8.342;2023-08-12T15:11:43;23.20;99.90
33825;DHT22;20127;48.962;8.342;2023-08-12T15:14:45;23.10;99.90
33825;DHT22;20127;48.962;8.342;2023-08-12T15:17:47;23.00;99.90
33825;DHT22;20127;48.962;8.342;2023-08-12T15:20:50;23.00;99.90
33825;DHT22;20127;48.962;8.342;2023-08-12T15:23:51;23.00;99.90
33825;DHT22;20127;48.962;8.342;2023-08-12T15:26:53;22.70;99.90
33825;DHT22;20127;48.962;8.342;2023-08-12T15:29:55;22.50;99.90
33825;DHT22;20127;48.962;8.342;2023-08-12T15:32:56;22.20;99.90
33825;DHT22;20127;48.962;8.342;2023-08-12T15:35:59;22.10;99.90
33825;DHT22;20127;48.962;8.342;2023-08-12T15:39:01;22.00;99.90
33825;DHT22;20127;48.962;8.342;2023-08-12T15:42:04;22.10;99.90
33825;DHT22;20127;48.962;8.342;2023-08-12T15:45:07;22.20;99.90
33825;DHT22;20127;48.962;8.342;2023-08-12T15:48:08;22.30;99.90
33825;DHT22;20127;48.962;8.342;2023-08-12T15:51:11;22.40;99.90
33825;DHT22;20127;48.962;8.342;2023-08-12T15:54:13;22.40;99.90
33825;DHT22;20127;48.962;8.342;2023-08-12T15:57:15;22.50;99.90
33825;DHT22;20127;48.962;8.342;2023-08-12T16:00:17;22.50;99.90
33825;DHT22;20127;48.962;8.342;2023-08-12T16:03:20;22.60;99.90
33825;DHT22;20127;48.962;8.342;2023-08-12T16:06:23;22.70;99.90
33825;DHT22;20127;48.962;8.342;2023-08-12T16:09:24;22.80;99.90
33825;DHT22;20127;48.962;8.342;2023-08-12T16:12:26;22.90;99.90
33825;DHT22;20127;48.962;8.342;2023-08-12T16:15:28;22.90;99.90
33825;DHT22;20127;48.962;8.342;2023-08-12T16:18:29;22.80;99.90
33825;DHT22;20127;48.962;8.342;2023-08-12T16:21:32;22.80;99.90
33825;DHT22;20127;48.962;8.342;2023-08-12T16:24:34;22.70;99.90
33825;DHT22;20127;48.962;8.342;2023-08-12T16:27:36;22.60;99.90
33825;DHT22;20127;48.962;8.342;2023-08-12T16:30:37;22.70;99.90
33825;DHT22;20127;48.962;8.342;2023-08-12T16:33:39;22.80;99.90
33825;DHT22;20127;48.962;8.342;2023-08-12T16:36:42;22.90;99.90
33825;DHT22;20127;48.962;8.342;2023-08-12T16:39:44;23.00;99.90
33825;DHT22;20127;48.962;8.342;2023-08-12T16:42:46;23.20;99.90
33825;DHT22;20127;48.962;8.342;2023-08-12T16:45:48;23.30;99.90
33825;DHT22;20127;48.962;8.342;2023-08-12T16:48:49;23.40;99.90
33825;DHT22;20127;48.962;8.342;2023-08-12T16:51:52;23.40;99.90
33825;DHT22;20127;48.962;8.342;2023-08-12T16:54:54;23.50;99.90
33825;DHT22;20127;48.962;8.342;2023-08-12T16:57:56;23.50;99.90
33825;DHT22;20127;48.962;8.342;2023-08-12T17:00:58;23.60;99.90
33825;DHT22;20127;48.962;8.342;2023-08-12T17:03:59;23.60;99.90
33825;DHT22;20127;48.962;8.342;2023-08-12T17:07:04;23.50;99.90
33825;DHT22;20127;48.962;8.342;2023-08-12T17:10:06;23.50;99.90
33825;DHT22;20127;48.962;8.342;2023-08-12T17:13:07;23.50;99.90
33825;DHT22;20127;48.962;8.342;2023-08-12T17:16:09;23.30;99.90
33825;DHT22;20127;48.962;8.342;2023-08-12T17:19:11;23.30;99.90
33825;DHT22;20127;48.962;8.342;2023-08-12T17:22:14;23.30;99.90
33825;DHT22;20127;48.962;8.342;2023-08-12T17:25:16;23.30;99.90
33825;DHT22;20127;48.962;8.342;2023-08-12T17:28:17;23.30;99.90
33825;DHT22;20127;48.962;8.342;2023-08-12T17:31:19;23.30;99.90
33825;DHT22;20127;48.962;8.342;2023-08-12T17:34:22;23.40;99.90
33825;DHT22;20127;48.962;8.342;2023-08-12T17:37:25;23.40;99.90
33825;DHT22;20127;48.962;8.342;2023-08-12T17:40:27;23.40;99.90
33825;DHT22;20127;48.962;8.342;2023-08-12T17:43:28;23.40;99.90
33825;DHT22;20127;48.962;8.342;2023-08-12T17:46:30;23.40;99.90
33825;DHT22;20127;48.962;8.342;2023-08-12T17:49:32;23.40;99.90
33825;DHT22;20127;48.962;8.342;2023-08-12T17:52:35;23.30;99.90
33825;DHT22;20127;48.962;8.342;2023-08-12T17:55:36;23.30;99.90
33825;DHT22;20127;48.962;8.342;2023-08-12T17:58:38;23.30;99.90
33825;DHT22;20127;48.962;8.342;2023-08-12T18:01:40;23.20;99.90
33825;DHT22;20127;48.962;8.342;2023-08-12T18:04:42;23.20;99.90
33825;DHT22;20127;48.962;8.342;2023-08-12T18:07:45;23.10;99.90
33825;DHT22;20127;48.962;8.342;2023-08-12T18:10:47;23.10;99.90
33825;DHT22;20127;48.962;8.342;2023-08-12T18:13:48;23.10;99.90
33825;DHT22;20127;48.962;8.342;2023-08-12T18:16:50;23.10;99.90
33825;DHT22;20127;48.962;8.342;2023-08-12T18:19:57;23.00;99.90
33825;DHT22;20127;48.962;8.342;2023-08-12T18:23:05;22.90;99.90
33825;DHT22;20127;48.962;8.342;2023-08-12T18:26:11;22.90;99.90
33825;DHT22;20127;48.962;8.342;2023-08-12T18:29:13;22.90;99.90
33825;DHT22;20127;48.962;8.342;2023-08-12T18:32:15;22.80;99.90
33825;DHT22;20127;48.962;8.342;2023-08-12T18:35:16;22.80;99.90
33825;DHT22;20127;48.962;8.342;2023-08-12T18:38:41;22.70;99.90
33825;DHT22;20127;48.962;8.342;2023-08-12T18:41:43;22.50;99.90
33825;DHT22;20127;48.962;8.342;2023-08-12T18:44:58;22.40;99.90
33825;DHT22;20127;48.962;8.342;2023-08-12T18:48:00;22.30;99.90
33825;DHT22;20127;48.962;8.342;2023-08-12T18:51:02;22.20;99.90
33825;DHT22;20127;48.962;8.342;2023-08-12T18:54:20;22.20;99.90
33825;DHT22;20127;48.962;8.342;2023-08-12T18:57:21;22.10;99.90
33825;DHT22;20127;48.962;8.342;2023-08-12T19:00:29;22.10;99.90
33825;DHT22;20127;48.962;8.342;2023-08-12T19:03:51;22.00;99.90
33825;DHT22;20127;48.962;8.342;2023-08-12T19:07:08;21.90;99.90
33825;DHT22;20127;48.962;8.342;2023-08-12T19:10:20;21.90;99.90
33825;DHT22;20127;48.962;8.342;2023-08-12T19:13:40;21.90;99.90